sensor_id;sensor_type;location;lat;lon;timestamp;pressure;altitude;pressure_sealevel;temperature;humidity
36328;BME280;22354;50.012;8.264;2022-11-03T00:01:49;100983.81;;;7.85;100.00
36328;BME280;22354;50.012;8.264;2022-11-03T00:04:17;100978.34;;;7.87;100.00
36328;BME280;22354;50.012;8.264;2022-11-03T00:06:44;100970.59;;;7.84;100.00
36328;BME280;22354;50.012;8.264;2022-11-03T00:09:12;100964.28;;;7.74;100.00
36328;BME280;22354;50.012;8.264;2022-11-03T00:11:39;100967.69;;;7.64;100.00
36328;BME280;22354;50.012;8.264;2022-11-03T00:14:06;100970.72;;;7.60;100.00
36328;BME280;22354;50.012;8.264;2022-11-03T00:16:32;100957.97;;;7.63;100.00
36328;BME280;22354;50.012;8.264;2022-11-03T00:18:57;100938.34;;;7.53;100.00
36328;BME280;22354;50.012;8.264;2022-11-03T00:21:23;100922.00;;;7.47;100.00
36328;BME280;22354;50.012;8.264;2022-11-03T00:23:48;100914.47;;;7.52;100.00
36328;BME280;22354;50.012;8.264;2022-11-03T00:26:18;100915.81;;;7.57;100.00
36328;BME280;22354;50.012;8.264;2022-11-03T00:28:49;100909.03;;;7.53;100.00
36328;BME280;22354;50.012;8.264;2022-11-03T00:31:29;100900.28;;;7.51;100.00
36328;BME280;22354;50.012;8.264;2022-11-03T00:33:54;100901.91;;;7.43;100.00
36328;BME280;22354;50.012;8.264;2022-11-03T00:36:21;100893.78;;;7.33;100.00
36328;BME280;22354;50.012;8.264;2022-11-03T00:38:47;100888.06;;;7.26;100.00
36328;BME280;22354;50.012;8.264;2022-11-03T00:41:13;100879.94;;;7.39;100.00
36328;BME280;22354;50.012;8.264;2022-11-03T00:43:39;100881.50;;;7.42;100.00
36328;BME280;22354;50.012;8.264;2022-11-03T00:46:06;100885.03;;;7.53;100.00
36328;BME280;22354;50.012;8.264;2022-11-03T00:48:33;100885.78;;;7.55;100.00
36328;BME280;22354;50.012;8.264;2022-11-03T00:51:06;100873.63;;;7.51;100.00
36328;BME280;22354;50.012;8.264;2022-11-03T00:53:34;100871.69;;;7.42;100.00
36328;BME280;22354;50.012;8.264;2022-11-03T00:56:00;100863.69;;;7.42;100.00
36328;BME280;22354;50.012;8.264;2022-11-03T00:58:26;100864.44;;;7.55;100.00
36328;BME280;22354;50.012;8.264;2022-11-03T01:03:27;100861.66;;;7.57;100.00
36328;BME280;22354;50.012;8.264;2022-11-03T01:05:53;100860.44;;;7.61;100.00
36328;BME280;22354;50.012;8.264;2022-11-03T01:08:37;100850.22;;;7.66;100.00
36328;BME280;22354;50.012;8.264;2022-11-03T01:11:13;100851.81;;;7.68;100.00
36328;BME280;22354;50.012;8.264;2022-11-03T01:13:58;100851.97;;;7.56;100.00
36328;BME280;22354;50.012;8.264;2022-11-03T01:16:23;100851.59;;;7.60;100.00
36328;BME280;22354;50.012;8.264;2022-11-03T01:18:49;100847.09;;;7.61;100.00
36328;BME280;22354;50.012;8.264;2022-11-03T01:21:15;100837.88;;;7.65;100.00
36328;BME280;22354;50.012;8.264;2022-11-03T01:23:41;100840.19;;;7.58;100.00
36328;BME280;22354;50.012;8.264;2022-11-03T01:26:08;100831.38;;;7.47;100.00
36328;BME280;22354;50.012;8.264;2022-11-03T01:28:34;100834.63;;;7.39;100.00
36328;BME280;22354;50.012;8.264;2022-11-03T01:31:08;100834.16;;;7.34;100.00
36328;BME280;22354;50.012;8.264;2022-11-03T01:33:36;100833.06;;;7.36;100.00
36328;BME280;22354;50.012;8.264;2022-11-03T01:36:01;100825.78;;;7.50;100.00
36328;BME280;22354;50.012;8.264;2022-11-03T01:38:30;100818.91;;;7.36;100.00
36328;BME280;22354;50.012;8.264;2022-11-03T01:40:56;100820.59;;;7.26;100.00
36328;BME280;22354;50.012;8.264;2022-11-03T01:43:22;100808.13;;;7.26;100.00
36328;BME280;22354;50.012;8.264;2022-11-03T01:46:15;100800.38;;;7.23;100.00
36328;BME280;22354;50.012;8.264;2022-11-03T01:48:47;100802.31;;;7.21;100.00
36328;BME280;22354;50.012;8.264;2022-11-03T01:51:16;100799.16;;;7.27;100.00
36328;BME280;22354;50.012;8.264;2022-11-03T01:53:48;100794.72;;;7.17;100.00
36328;BME280;22354;50.012;8.264;2022-11-03T01:56:16;100789.72;;;7.12;100.00
36328;BME280;22354;50.012;8.264;2022-11-03T01:58:42;100787.56;;;7.06;100.00
36328;BME280;22354;50.012;8.264;2022-11-03T02:01:10;100775.69;;;6.99;100.00
36328;BME280;22354;50.012;8.264;2022-11-03T02:03:39;100774.25;;;7.17;100.00
36328;BME280;22354;50.012;8.264;2022-11-03T02:06:05;100776.41;;;7.12;100.00
36328;BME280;22354;50.012;8.264;2022-11-03T02:08:38;100774.84;;;7.09;100.00
36328;BME280;22354;50.012;8.264;2022-11-03T02:11:05;100769.66;;;6.97;100.00
36328;BME280;22354;50.012;8.264;2022-11-03T02:13:50;100761.28;;;7.01;100.00
36328;BME280;22354;50.012;8.264;2022-11-03T02:16:16;100758.75;;;7.00;100.00
36328;BME280;22354;50.012;8.264;2022-11-03T02:18:43;100762.97;;;7.02;100.00
36328;BME280;22354;50.012;8.264;2022-11-03T02:24:14;100755.34;;;6.87;100.00
36328;BME280;22354;50.012;8.264;2022-11-03T02:26:47;100752.69;;;6.87;100.00
36328;BME280;22354;50.012;8.264;2022-11-03T02:29:14;100751.72;;;6.88;100.00
36328;BME280;22354;50.012;8.264;2022-11-03T02:31:42;100749.91;;;6.88;100.00
36328;BME280;22354;50.012;8.264;2022-11-03T02:34:14;100747.88;;;6.92;100.00
36328;BME280;22354;50.012;8.264;2022-11-03T02:36:54;100731.06;;;6.80;100.00
36328;BME280;22354;50.012;8.264;2022-11-03T02:42:07;100713.34;;;7.01;100.00
36328;BME280;22354;50.012;8.264;2022-11-03T02:44:35;100719.41;;;6.92;100.00
36328;BME280;22354;50.012;8.264;2022-11-03T02:47:05;100709.22;;;7.08;100.00
36328;BME280;22354;50.012;8.264;2022-11-03T02:49:37;100705.00;;;7.06;100.00
36328;BME280;22354;50.012;8.264;2022-11-03T02:52:04;100694.69;;;7.01;100.00
36328;BME280;22354;50.012;8.264;2022-11-03T02:54:33;100692.03;;;7.01;100.00
36328;BME280;22354;50.012;8.264;2022-11-03T02:57:08;100690.13;;;6.92;100.00
36328;BME280;22354;50.012;8.264;2022-11-03T02:59:46;100677.13;;;7.10;100.00
36328;BME280;22354;50.012;8.264;2022-11-03T03:02:18;100675.56;;;7.07;100.00
36328;BME280;22354;50.012;8.264;2022-11-03T03:04:53;100665.88;;;7.06;100.00
36328;BME280;22354;50.012;8.264;2022-11-03T03:07:27;100660.06;;;7.01;100.00
36328;BME280;22354;50.012;8.264;2022-11-03T03:09:59;100663.69;;;7.00;100.00
36328;BME280;22354;50.012;8.264;2022-11-03T03:12:26;100664.47;;;6.91;100.00
36328;BME280;22354;50.012;8.264;2022-11-03T03:14:53;100646.03;;;6.88;100.00
36328;BME280;22354;50.012;8.264;2022-11-03T03:17:26;100650.19;;;6.81;100.00
36328;BME280;22354;50.012;8.264;2022-11-03T03:20:07;100648.38;;;6.82;100.00
36328;BME280;22354;50.012;8.264;2022-11-03T03:22:46;100649.47;;;6.79;100.00
36328;BME280;22354;50.012;8.264;2022-11-03T03:27:59;100645.22;;;6.76;100.00
36328;BME280;22354;50.012;8.264;2022-11-03T03:30:28;100633.97;;;6.73;100.00
36328;BME280;22354;50.012;8.264;2022-11-03T03:32:56;100638.44;;;6.84;100.00
36328;BME280;22354;50.012;8.264;2022-11-03T03:35:25;100642.78;;;6.85;100.00
36328;BME280;22354;50.012;8.264;2022-11-03T03:38:05;100644.38;;;6.76;100.00
36328;BME280;22354;50.012;8.264;2022-11-03T03:40:35;100648.03;;;6.64;100.00
36328;BME280;22354;50.012;8.264;2022-11-03T03:43:04;100635.81;;;6.61;100.00
36328;BME280;22354;50.012;8.264;2022-11-03T03:45:31;100631.09;;;6.65;100.00
36328;BME280;22354;50.012;8.264;2022-11-03T03:47:58;100624.19;;;6.62;100.00
36328;BME280;22354;50.012;8.264;2022-11-03T03:50:25;100620.34;;;6.55;100.00
36328;BME280;22354;50.012;8.264;2022-11-03T03:53:03;100617.91;;;6.63;100.00
36328;BME280;22354;50.012;8.264;2022-11-03T03:55:38;100616.72;;;6.56;100.00
36328;BME280;22354;50.012;8.264;2022-11-03T03:58:04;100613.91;;;6.58;100.00
36328;BME280;22354;50.012;8.264;2022-11-03T04:00:30;100612.94;;;6.59;100.00
36328;BME280;22354;50.012;8.264;2022-11-03T04:02:56;100608.47;;;6.59;100.00
36328;BME280;22354;50.012;8.264;2022-11-03T04:05:23;100608.00;;;6.54;100.00
36328;BME280;22354;50.012;8.264;2022-11-03T04:07:48;100602.06;;;6.50;100.00
36328;BME280;22354;50.012;8.264;2022-11-03T04:10:19;100607.75;;;6.57;100.00
36328;BME280;22354;50.012;8.264;2022-11-03T04:12:45;100602.75;;;6.64;100.00
36328;BME280;22354;50.012;8.264;2022-11-03T04:15:30;100605.69;;;6.61;100.00
36328;BME280;22354;50.012;8.264;2022-11-03T04:18:15;100606.06;;;6.56;100.00
36328;BME280;22354;50.012;8.264;2022-11-03T04:20:59;100607.88;;;6.56;100.00
36328;BME280;22354;50.012;8.264;2022-11-03T04:23:42;100597.97;;;6.46;100.00
36328;BME280;22354;50.012;8.264;2022-11-03T04:26:12;100600.88;;;6.43;100.00
36328;BME280;22354;50.012;8.264;2022-11-03T04:28:37;100602.19;;;6.38;100.00
36328;BME280;22354;50.012;8.264;2022-11-03T04:31:05;100602.69;;;6.43;100.00
36328;BME280;22354;50.012;8.264;2022-11-03T04:33:34;100599.31;;;6.30;100.00
36328;BME280;22354;50.012;8.264;2022-11-03T04:35:59;100590.38;;;6.31;100.00
36328;BME280;22354;50.012;8.264;2022-11-03T04:38:25;100591.34;;;6.41;100.00
36328;BME280;22354;50.012;8.264;2022-11-03T04:40:53;100587.84;;;6.29;100.00
36328;BME280;22354;50.012;8.264;2022-11-03T04:43:20;100584.53;;;6.37;100.00
36328;BME280;22354;50.012;8.264;2022-11-03T04:45:47;100581.03;;;6.36;100.00
36328;BME280;22354;50.012;8.264;2022-11-03T04:48:22;100584.53;;;6.48;100.00
36328;BME280;22354;50.012;8.264;2022-11-03T04:50:51;100578.88;;;6.41;100.00
36328;BME280;22354;50.012;8.264;2022-11-03T04:53:19;100577.66;;;6.45;100.00
36328;BME280;22354;50.012;8.264;2022-11-03T04:55:46;100578.75;;;6.43;100.00
36328;BME280;22354;50.012;8.264;2022-11-03T05:00:42;100566.53;;;6.29;100.00
36328;BME280;22354;50.012;8.264;2022-11-03T05:03:14;100559.66;;;6.27;100.00
36328;BME280;22354;50.012;8.264;2022-11-03T05:05:41;100554.81;;;6.32;100.00
36328;BME280;22354;50.012;8.264;2022-11-03T05:08:08;100544.78;;;6.24;100.00
36328;BME280;22354;50.012;8.264;2022-11-03T05:10:33;100540.28;;;6.25;100.00
36328;BME280;22354;50.012;8.264;2022-11-03T05:12:59;100544.41;;;6.29;100.00
36328;BME280;22354;50.012;8.264;2022-11-03T05:15:30;100525.16;;;6.36;100.00
36328;BME280;22354;50.012;8.264;2022-11-03T05:17:59;100524.94;;;6.39;100.00
36328;BME280;22354;50.012;8.264;2022-11-03T05:20:44;100525.66;;;6.41;100.00
36328;BME280;22354;50.012;8.264;2022-11-03T05:23:10;100523.44;;;6.46;100.00
36328;BME280;22354;50.012;8.264;2022-11-03T05:25:44;100511.84;;;6.36;100.00
36328;BME280;22354;50.012;8.264;2022-11-03T05:28:30;100516.97;;;6.28;100.00
36328;BME280;22354;50.012;8.264;2022-11-03T05:30:56;100501.00;;;6.28;100.00
36328;BME280;22354;50.012;8.264;2022-11-03T05:35:51;100486.47;;;6.32;100.00
36328;BME280;22354;50.012;8.264;2022-11-03T05:38:18;100484.28;;;6.37;100.00
36328;BME280;22354;50.012;8.264;2022-11-03T05:40:44;100479.19;;;6.45;100.00
36328;BME280;22354;50.012;8.264;2022-11-03T05:43:12;100470.34;;;6.45;100.00
36328;BME280;22354;50.012;8.264;2022-11-03T05:45:38;100473.16;;;6.43;100.00
36328;BME280;22354;50.012;8.264;2022-11-03T05:48:31;100473.53;;;6.39;100.00
36328;BME280;22354;50.012;8.264;2022-11-03T05:50:58;100469.41;;;6.35;100.00
36328;BME280;22354;50.012;8.264;2022-11-03T05:55:53;100453.09;;;6.39;100.00
36328;BME280;22354;50.012;8.264;2022-11-03T06:00:48;100445.09;;;6.39;100.00
36328;BME280;22354;50.012;8.264;2022-11-03T06:03:24;100451.78;;;6.22;100.00
36328;BME280;22354;50.012;8.264;2022-11-03T06:05:51;100444.94;;;6.09;100.00
36328;BME280;22354;50.012;8.264;2022-11-03T06:08:23;100442.63;;;6.15;100.00
36328;BME280;22354;50.012;8.264;2022-11-03T06:10:56;100443.38;;;6.06;100.00
36328;BME280;22354;50.012;8.264;2022-11-03T06:15:57;100442.41;;;5.96;100.00
36328;BME280;22354;50.012;8.264;2022-11-03T06:18:26;100443.03;;;6.00;100.00
36328;BME280;22354;50.012;8.264;2022-11-03T06:20:57;100443.25;;;5.97;100.00
36328;BME280;22354;50.012;8.264;2022-11-03T06:23:23;100442.06;;;5.89;100.00
36328;BME280;22354;50.012;8.264;2022-11-03T06:25:51;100439.66;;;5.86;100.00
36328;BME280;22354;50.012;8.264;2022-11-03T06:28:24;100439.75;;;5.85;100.00
36328;BME280;22354;50.012;8.264;2022-11-03T06:30:50;100447.03;;;5.94;100.00
36328;BME280;22354;50.012;8.264;2022-11-03T06:33:26;100438.44;;;5.90;100.00
36328;BME280;22354;50.012;8.264;2022-11-03T06:36:17;100430.22;;;6.05;100.00
36328;BME280;22354;50.012;8.264;2022-11-03T06:38:39;100427.03;;;6.11;100.00
36328;BME280;22354;50.012;8.264;2022-11-03T06:41:16;100421.47;;;6.14;100.00
36328;BME280;22354;50.012;8.264;2022-11-03T06:43:43;100416.59;;;6.30;100.00
36328;BME280;22354;50.012;8.264;2022-11-03T06:46:14;100416.84;;;6.27;100.00
36328;BME280;22354;50.012;8.264;2022-11-03T06:48:43;100421.91;;;6.30;100.00
36328;BME280;22354;50.012;8.264;2022-11-03T06:51:23;100417.03;;;6.35;100.00
36328;BME280;22354;50.012;8.264;2022-11-03T06:53:51;100401.16;;;6.45;100.00
36328;BME280;22354;50.012;8.264;2022-11-03T06:56:21;100416.69;;;6.40;100.00
36328;BME280;22354;50.012;8.264;2022-11-03T06:58:48;100422.22;;;6.37;100.00
36328;BME280;22354;50.012;8.264;2022-11-03T07:01:31;100422.59;;;6.43;100.00
36328;BME280;22354;50.012;8.264;2022-11-03T07:04:02;100417.97;;;6.45;100.00
36328;BME280;22354;50.012;8.264;2022-11-03T07:06:33;100410.44;;;6.50;100.00
36328;BME280;22354;50.012;8.264;2022-11-03T07:09:02;100402.41;;;6.62;100.00
36328;BME280;22354;50.012;8.264;2022-11-03T07:11:30;100392.47;;;6.64;100.00
36328;BME280;22354;50.012;8.264;2022-11-03T07:14:09;100395.41;;;6.61;100.00
36328;BME280;22354;50.012;8.264;2022-11-03T07:16:40;100395.66;;;6.58;100.00
36328;BME280;22354;50.012;8.264;2022-11-03T07:19:13;100390.06;;;6.61;100.00
36328;BME280;22354;50.012;8.264;2022-11-03T07:21:49;100384.03;;;6.59;100.00
36328;BME280;22354;50.012;8.264;2022-11-03T07:24:18;100379.75;;;6.46;100.00
36328;BME280;22354;50.012;8.264;2022-11-03T07:26:46;100368.13;;;6.47;100.00
36328;BME280;22354;50.012;8.264;2022-11-03T07:29:19;100372.94;;;6.54;100.00
36328;BME280;22354;50.012;8.264;2022-11-03T07:31:46;100376.91;;;6.59;100.00
36328;BME280;22354;50.012;8.264;2022-11-03T07:34:18;100370.28;;;6.74;100.00
36328;BME280;22354;50.012;8.264;2022-11-03T07:36:45;100382.41;;;6.88;100.00
36328;BME280;22354;50.012;8.264;2022-11-03T07:39:13;100393.91;;;6.89;100.00
36328;BME280;22354;50.012;8.264;2022-11-03T07:41:40;100389.19;;;6.92;100.00
36328;BME280;22354;50.012;8.264;2022-11-03T07:44:08;100399.56;;;6.95;100.00
36328;BME280;22354;50.012;8.264;2022-11-03T07:46:39;100405.19;;;7.02;100.00
36328;BME280;22354;50.012;8.264;2022-11-03T07:49:15;100415.63;;;7.05;100.00
36328;BME280;22354;50.012;8.264;2022-11-03T07:51:44;100419.56;;;7.10;100.00
36328;BME280;22354;50.012;8.264;2022-11-03T07:54:29;100418.91;;;7.18;100.00
36328;BME280;22354;50.012;8.264;2022-11-03T07:59:36;100413.03;;;7.55;100.00
36328;BME280;22354;50.012;8.264;2022-11-03T08:04:39;100412.09;;;7.65;100.00
36328;BME280;22354;50.012;8.264;2022-11-03T08:07:05;100417.00;;;7.60;100.00
36328;BME280;22354;50.012;8.264;2022-11-03T08:09:30;100413.06;;;7.64;100.00
36328;BME280;22354;50.012;8.264;2022-11-03T08:11:55;100411.56;;;7.72;100.00
36328;BME280;22354;50.012;8.264;2022-11-03T08:14:20;100411.53;;;7.62;100.00
36328;BME280;22354;50.012;8.264;2022-11-03T08:16:46;100410.88;;;7.69;100.00
36328;BME280;22354;50.012;8.264;2022-11-03T08:19:11;100409.88;;;7.80;100.00
36328;BME280;22354;50.012;8.264;2022-11-03T08:21:36;100404.59;;;7.90;100.00
36328;BME280;22354;50.012;8.264;2022-11-03T08:24:02;100399.84;;;8.03;100.00
36328;BME280;22354;50.012;8.264;2022-11-03T08:26:27;100394.09;;;8.08;100.00
36328;BME280;22354;50.012;8.264;2022-11-03T08:28:52;100406.56;;;8.07;100.00
36328;BME280;22354;50.012;8.264;2022-11-03T08:31:18;100411.50;;;8.02;100.00
36328;BME280;22354;50.012;8.264;2022-11-03T08:33:43;100410.38;;;8.14;100.00
36328;BME280;22354;50.012;8.264;2022-11-03T08:36:09;100409.25;;;8.17;100.00
36328;BME280;22354;50.012;8.264;2022-11-03T08:38:35;100409.00;;;8.29;100.00
36328;BME280;22354;50.012;8.264;2022-11-03T08:41:00;100416.97;;;8.20;100.00
36328;BME280;22354;50.012;8.264;2022-11-03T08:43:26;100410.03;;;8.48;100.00
36328;BME280;22354;50.012;8.264;2022-11-03T08:45:52;100421.69;;;8.66;100.00
36328;BME280;22354;50.012;8.264;2022-11-03T08:48:24;100418.59;;;8.80;100.00
36328;BME280;22354;50.012;8.264;2022-11-03T08:50:54;100432.22;;;8.77;100.00
36328;BME280;22354;50.012;8.264;2022-11-03T08:53:21;100439.22;;;8.98;100.00
36328;BME280;22354;50.012;8.264;2022-11-03T08:55:46;100453.75;;;8.85;100.00
36328;BME280;22354;50.012;8.264;2022-11-03T08:58:11;100450.94;;;8.87;100.00
36328;BME280;22354;50.012;8.264;2022-11-03T09:00:37;100460.78;;;8.86;100.00
36328;BME280;22354;50.012;8.264;2022-11-03T09:03:02;100461.19;;;8.82;100.00
36328;BME280;22354;50.012;8.264;2022-11-03T09:05:28;100454.44;;;8.88;100.00
36328;BME280;22354;50.012;8.264;2022-11-03T09:07:53;100452.03;;;8.94;100.00
36328;BME280;22354;50.012;8.264;2022-11-03T09:10:18;100457.81;;;8.90;100.00
36328;BME280;22354;50.012;8.264;2022-11-03T09:12:44;100442.19;;;8.95;100.00
36328;BME280;22354;50.012;8.264;2022-11-03T09:15:09;100435.44;;;8.81;100.00
36328;BME280;22354;50.012;8.264;2022-11-03T09:17:36;100435.28;;;9.02;100.00
36328;BME280;22354;50.012;8.264;2022-11-03T09:20:01;100422.53;;;8.76;100.00
36328;BME280;22354;50.012;8.264;2022-11-03T09:22:26;100414.22;;;8.99;100.00
36328;BME280;22354;50.012;8.264;2022-11-03T09:24:51;100412.63;;;9.06;100.00
36328;BME280;22354;50.012;8.264;2022-11-03T09:27:17;100413.31;;;9.08;100.00
36328;BME280;22354;50.012;8.264;2022-11-03T09:29:42;100402.63;;;9.08;100.00
36328;BME280;22354;50.012;8.264;2022-11-03T09:32:07;100396.19;;;9.01;100.00
36328;BME280;22354;50.012;8.264;2022-11-03T09:34:33;100396.88;;;9.12;100.00
36328;BME280;22354;50.012;8.264;2022-11-03T09:36:58;100393.38;;;9.12;100.00
36328;BME280;22354;50.012;8.264;2022-11-03T09:39:23;100389.50;;;9.24;100.00
36328;BME280;22354;50.012;8.264;2022-11-03T09:41:49;100385.56;;;9.28;100.00
36328;BME280;22354;50.012;8.264;2022-11-03T09:44:15;100383.59;;;9.30;100.00
36328;BME280;22354;50.012;8.264;2022-11-03T09:46:41;100381.56;;;9.42;100.00
36328;BME280;22354;50.012;8.264;2022-11-03T09:49:07;100362.81;;;9.52;100.00
36328;BME280;22354;50.012;8.264;2022-11-03T09:51:34;100363.25;;;9.47;100.00
36328;BME280;22354;50.012;8.264;2022-11-03T09:54:02;100367.81;;;9.64;100.00
36328;BME280;22354;50.012;8.264;2022-11-03T09:56:29;100357.19;;;9.72;100.00
36328;BME280;22354;50.012;8.264;2022-11-03T09:58:54;100352.00;;;9.71;100.00
36328;BME280;22354;50.012;8.264;2022-11-03T10:01:19;100351.34;;;9.87;100.00
36328;BME280;22354;50.012;8.264;2022-11-03T10:03:45;100334.84;;;9.91;100.00
36328;BME280;22354;50.012;8.264;2022-11-03T10:06:10;100332.44;;;9.88;100.00
36328;BME280;22354;50.012;8.264;2022-11-03T10:08:37;100326.88;;;9.99;100.00
36328;BME280;22354;50.012;8.264;2022-11-03T10:11:05;100320.16;;;9.95;100.00
36328;BME280;22354;50.012;8.264;2022-11-03T10:13:57;100319.25;;;10.04;100.00
36328;BME280;22354;50.012;8.264;2022-11-03T10:16:23;100307.81;;;10.30;100.00
36328;BME280;22354;50.012;8.264;2022-11-03T10:18:49;100295.09;;;10.32;100.00
36328;BME280;22354;50.012;8.264;2022-11-03T10:21:22;100277.72;;;10.36;100.00
36328;BME280;22354;50.012;8.264;2022-11-03T10:23:49;100284.50;;;10.48;100.00
36328;BME280;22354;50.012;8.264;2022-11-03T10:26:17;100284.41;;;10.58;100.00
36328;BME280;22354;50.012;8.264;2022-11-03T10:29:04;100283.44;;;10.67;100.00
36328;BME280;22354;50.012;8.264;2022-11-03T10:31:37;100296.72;;;10.69;100.00
36328;BME280;22354;50.012;8.264;2022-11-03T10:34:05;100311.06;;;10.68;100.00
36328;BME280;22354;50.012;8.264;2022-11-03T10:36:32;100315.66;;;10.49;100.00
36328;BME280;22354;50.012;8.264;2022-11-03T10:38:58;100310.53;;;10.56;100.00
36328;BME280;22354;50.012;8.264;2022-11-03T10:41:29;100309.56;;;10.65;100.00
36328;BME280;22354;50.012;8.264;2022-11-03T10:46:36;100289.59;;;10.59;100.00
36328;BME280;22354;50.012;8.264;2022-11-03T10:49:13;100282.34;;;10.52;100.00
36328;BME280;22354;50.012;8.264;2022-11-03T10:51:41;100273.91;;;10.64;100.00
36328;BME280;22354;50.012;8.264;2022-11-03T10:54:12;100254.31;;;10.64;100.00
36328;BME280;22354;50.012;8.264;2022-11-03T10:56:39;100241.97;;;10.45;100.00
36328;BME280;22354;50.012;8.264;2022-11-03T10:59:05;100229.34;;;10.63;100.00
36328;BME280;22354;50.012;8.264;2022-11-03T11:01:30;100234.28;;;10.50;100.00
36328;BME280;22354;50.012;8.264;2022-11-03T11:03:56;100245.09;;;10.67;100.00
36328;BME280;22354;50.012;8.264;2022-11-03T11:06:26;100229.34;;;10.63;100.00
36328;BME280;22354;50.012;8.264;2022-11-03T11:08:53;100226.84;;;10.62;100.00
36328;BME280;22354;50.012;8.264;2022-11-03T11:11:23;100217.59;;;10.56;100.00
36328;BME280;22354;50.012;8.264;2022-11-03T11:16:50;100212.53;;;10.53;100.00
36328;BME280;22354;50.012;8.264;2022-11-03T11:19:15;100203.56;;;10.62;100.00
36328;BME280;22354;50.012;8.264;2022-11-03T11:24:10;100193.34;;;10.66;100.00
36328;BME280;22354;50.012;8.264;2022-11-03T11:26:36;100177.13;;;10.68;100.00
36328;BME280;22354;50.012;8.264;2022-11-03T11:31:43;100174.09;;;10.62;100.00
36328;BME280;22354;50.012;8.264;2022-11-03T11:36:35;100184.19;;;10.69;100.00
36328;BME280;22354;50.012;8.264;2022-11-03T11:39:02;100183.03;;;10.71;100.00
36328;BME280;22354;50.012;8.264;2022-11-03T11:52:32;100171.81;;;10.76;100.00
36328;BME280;22354;50.012;8.264;2022-11-03T11:55:00;100157.91;;;10.72;100.00
36328;BME280;22354;50.012;8.264;2022-11-03T11:57:28;100166.41;;;10.68;100.00
36328;BME280;22354;50.012;8.264;2022-11-03T11:59:54;100159.59;;;10.73;100.00
36328;BME280;22354;50.012;8.264;2022-11-03T12:02:27;100154.19;;;10.65;100.00
36328;BME280;22354;50.012;8.264;2022-11-03T12:04:57;100148.66;;;10.67;100.00
36328;BME280;22354;50.012;8.264;2022-11-03T12:07:32;100135.91;;;10.60;100.00
36328;BME280;22354;50.012;8.264;2022-11-03T12:10:28;100120.19;;;10.66;100.00
36328;BME280;22354;50.012;8.264;2022-11-03T12:12:55;100125.72;;;10.64;100.00
36328;BME280;22354;50.012;8.264;2022-11-03T12:15:54;100105.28;;;10.55;100.00
36328;BME280;22354;50.012;8.264;2022-11-03T12:21:06;100071.97;;;10.66;100.00
36328;BME280;22354;50.012;8.264;2022-11-03T12:23:38;100070.28;;;10.64;100.00
36328;BME280;22354;50.012;8.264;2022-11-03T12:28:58;100061.63;;;10.71;100.00
36328;BME280;22354;50.012;8.264;2022-11-03T12:31:23;100066.31;;;10.77;100.00
36328;BME280;22354;50.012;8.264;2022-11-03T12:33:48;100056.28;;;10.79;100.00
36328;BME280;22354;50.012;8.264;2022-11-03T12:36:13;100043.50;;;10.64;100.00
36328;BME280;22354;50.012;8.264;2022-11-03T12:38:39;100045.38;;;10.72;100.00
36328;BME280;22354;50.012;8.264;2022-11-03T12:41:04;100034.16;;;10.69;100.00
36328;BME280;22354;50.012;8.264;2022-11-03T12:43:49;100031.47;;;10.77;100.00
36328;BME280;22354;50.012;8.264;2022-11-03T12:46:19;100038.19;;;10.73;100.00
36328;BME280;22354;50.012;8.264;2022-11-03T12:48:45;100042.88;;;10.79;100.00
36328;BME280;22354;50.012;8.264;2022-11-03T12:51:13;100031.47;;;10.77;100.00
36328;BME280;22354;50.012;8.264;2022-11-03T12:53:39;100024.13;;;10.79;100.00
36328;BME280;22354;50.012;8.264;2022-11-03T12:56:05;100012.59;;;10.86;100.00
36328;BME280;22354;50.012;8.264;2022-11-03T12:58:31;99995.84;;;10.84;100.00
36328;BME280;22354;50.012;8.264;2022-11-03T13:00:56;99993.81;;;10.86;100.00
36328;BME280;22354;50.012;8.264;2022-11-03T13:03:21;99985.47;;;10.98;100.00
36328;BME280;22354;50.012;8.264;2022-11-03T13:05:47;99979.75;;;10.92;100.00
36328;BME280;22354;50.012;8.264;2022-11-03T13:08:13;99986.47;;;10.97;100.00
36328;BME280;22354;50.012;8.264;2022-11-03T13:10:38;99985.47;;;10.98;100.00
36328;BME280;22354;50.012;8.264;2022-11-03T13:13:05;99982.94;;;10.96;100.00
36328;BME280;22354;50.012;8.264;2022-11-03T13:15:30;99965.84;;;10.89;100.00
36328;BME280;22354;50.012;8.264;2022-11-03T13:17:55;99950.78;;;10.96;100.00
36328;BME280;22354;50.012;8.264;2022-11-03T13:20:20;99933.69;;;10.89;100.00
36328;BME280;22354;50.012;8.264;2022-11-03T13:22:46;99922.63;;;10.92;100.00
36328;BME280;22354;50.012;8.264;2022-11-03T13:25:11;99924.31;;;10.93;100.00
36328;BME280;22354;50.012;8.264;2022-11-03T13:27:36;99919.47;;;10.97;100.00
36328;BME280;22354;50.012;8.264;2022-11-03T13:30:03;99914.59;;;10.92;100.00
36328;BME280;22354;50.012;8.264;2022-11-03T13:32:29;99909.41;;;10.90;100.00
36328;BME280;22354;50.012;8.264;2022-11-03T13:34:54;99905.53;;;10.93;100.00
36328;BME280;22354;50.012;8.264;2022-11-03T13:37:20;99903.69;;;10.93;100.00
36328;BME280;22354;50.012;8.264;2022-11-03T13:39:45;99904.38;;;10.87;100.00
36328;BME280;22354;50.012;8.264;2022-11-03T13:42:10;99893.16;;;10.92;100.00
36328;BME280;22354;50.012;8.264;2022-11-03T13:44:36;99894.16;;;10.91;100.00
36328;BME280;22354;50.012;8.264;2022-11-03T13:47:01;99887.78;;;10.92;100.00
36328;BME280;22354;50.012;8.264;2022-11-03T13:49:27;99881.41;;;10.93;100.00
36328;BME280;22354;50.012;8.264;2022-11-03T13:51:53;99873.72;;;10.98;100.00
36328;BME280;22354;50.012;8.264;2022-11-03T13:54:18;99862.84;;;11.00;100.00
36328;BME280;22354;50.012;8.264;2022-11-03T13:56:43;99852.94;;;11.00;100.00